If you wish to contribute or participate in the discussions about articles you are invited to join SKYbrary as a registered user

 Actions

Mayor General FAP Armando Revoredo Iglesias Airport

From SKYbrary Wiki

SPJR
Airport
ICAO: SPJR – IATA: CJA
Summary
Name Mayor General FAP Armando Revoredo Iglesias Airport
Region South America and Caribbean
Territory Peru PE.gif
Location Cajamarca, Cajamarca
Serving Cajamarca
Elevation 2,676.449 m
8,781 ft
8,781 ft2,676.449 m
Type medium airport
Coordinates 7° 8' 21.06" S, 78° 29' 21.84" W
Runways
Designator Length Width Surface ROPS
16/34 2500 m8,202.1 ft
45 m147.638 ft
ASP /


METAR
Observation SPJR 181530Z VRB04KT CAVOK 21/07 Q1028
Station Cajamarca
Date/Time 18 September 2019 15:30:00
Wind direction °
Wind speed 04 kts
Lowest cloud amount clouds and visibility OK
Temperature 21°C
Dew point 7°C
Humidity 40%
QNH 1028 hPa
Weather condition n/a

Airport serving Cajamarca, capital of the Cajamarca Region in Peru.

Climatology

Subtropical Highland climate (Köppen climate classification Cwb).

Maps

Terrain

Loading map...

Airport Layout

Loading map...


Accidents & Serious Incidents at or in vicinity of SPJR

None on SKYbrary